createdAt,value
2018-12-14T00:05:19.129Z,1.20
2018-12-14T00:08:24.372Z,1.17
2018-12-14T00:11:27.561Z,1.18
2018-12-14T00:14:30.801Z,1.13
2018-12-14T00:17:35.172Z,1.10
2018-12-14T00:20:38.361Z,1.24
2018-12-14T00:23:41.572Z,1.17
2018-12-14T00:26:44.830Z,1.12
2018-12-14T00:29:48.529Z,1.27
2018-12-14T00:32:51.753Z,1.27
2018-12-14T00:35:55.145Z,1.24
2018-12-14T00:38:58.485Z,1.43
2018-12-14T00:42:01.753Z,1.33
2018-12-14T00:45:05.281Z,1.44
2018-12-14T00:48:08.527Z,1.43
2018-12-14T00:51:11.807Z,1.42
2018-12-14T00:54:15.050Z,1.40
2018-12-14T00:57:18.311Z,1.44
2018-12-14T01:00:21.537Z,1.38
2018-12-14T01:03:24.973Z,1.58
2018-12-14T01:06:28.363Z,1.51
2018-12-14T01:09:31.628Z,1.41
2018-12-14T01:12:37.115Z,1.47
2018-12-14T01:15:40.451Z,1.44
2018-12-14T01:18:43.756Z,1.47
2018-12-14T01:21:46.988Z,1.45
2018-12-14T01:24:50.184Z,1.53
2018-12-14T01:27:53.418Z,1.59
2018-12-14T01:30:56.642Z,1.58
2018-12-14T01:33:59.898Z,1.64
2018-12-14T01:37:03.137Z,1.59
2018-12-14T01:40:07.511Z,1.66
2018-12-14T01:43:10.757Z,1.65
2018-12-14T01:46:13.992Z,1.75
2018-12-14T01:49:17.277Z,1.67
2018-12-14T01:52:21.757Z,1.71
2018-12-14T01:55:25.125Z,1.68
2018-12-14T01:58:28.324Z,1.64
2018-12-14T02:01:31.597Z,1.75
2018-12-14T02:04:34.896Z,1.72
2018-12-14T02:07:38.275Z,1.72
2018-12-14T02:10:41.510Z,1.68
2018-12-14T02:13:44.751Z,1.74
2018-12-14T02:16:47.948Z,1.73
2018-12-14T02:19:51.549Z,1.76
2018-12-14T02:22:54.807Z,1.78
2018-12-14T02:25:58.088Z,1.76
2018-12-14T02:29:01.456Z,1.71
2018-12-14T02:32:05.041Z,1.73
2018-12-14T02:35:08.464Z,1.72
2018-12-14T02:38:11.709Z,1.75
2018-12-14T02:41:14.934Z,1.74
2018-12-14T02:44:19.310Z,1.79
2018-12-14T02:47:22.639Z,1.79
2018-12-14T02:50:25.884Z,1.76
2018-12-14T02:53:29.121Z,1.80
2018-12-14T02:56:32.325Z,1.81
2018-12-14T02:59:35.576Z,1.79
2018-12-14T03:02:38.854Z,1.83
2018-12-14T03:05:42.188Z,1.83
2018-12-14T03:08:45.561Z,1.82
2018-12-14T03:11:48.806Z,1.85
2018-12-14T03:14:52.038Z,1.82
2018-12-14T03:17:55.264Z,1.84
2018-12-14T03:20:58.541Z,1.76
2018-12-14T03:24:01.759Z,1.76
2018-12-14T03:27:05.011Z,1.85
2018-12-14T03:30:09.580Z,1.81
2018-12-14T03:33:12.945Z,1.81
2018-12-14T03:36:16.208Z,1.83
2018-12-14T03:39:19.426Z,1.84
2018-12-14T03:42:22.657Z,1.85
2018-12-14T03:45:25.875Z,1.87
2018-12-14T03:48:29.110Z,1.83
2018-12-14T03:51:32.374Z,1.80
2018-12-14T03:54:35.621Z,1.84
2018-12-14T03:57:38.834Z,1.82
2018-12-14T04:00:42.480Z,1.81
2018-12-14T04:03:45.707Z,1.81
2018-12-14T04:06:48.925Z,1.79
2018-12-14T04:09:52.131Z,1.80
2018-12-14T04:12:55.367Z,1.81
2018-12-14T04:15:58.564Z,1.77
2018-12-14T04:19:01.785Z,1.80
2018-12-14T04:22:05.048Z,1.78
2018-12-14T04:25:08.443Z,1.78
2018-12-14T04:28:11.755Z,1.83
2018-12-14T04:31:15.001Z,1.88
2018-12-14T04:34:18.233Z,1.87
2018-12-14T04:37:21.468Z,1.84
2018-12-14T04:40:24.696Z,1.81
2018-12-14T04:43:27.940Z,1.84
2018-12-14T04:46:31.294Z,1.80
2018-12-14T04:49:34.992Z,1.81
2018-12-14T04:52:38.229Z,1.78
2018-12-14T04:55:41.471Z,1.86
2018-12-14T04:58:44.733Z,1.78
2018-12-14T05:01:48.002Z,1.75
2018-12-14T05:04:51.251Z,1.78
2018-12-14T05:07:54.645Z,1.80
2018-12-14T05:10:57.864Z,1.83
2018-12-14T05:14:01.125Z,1.81
2018-12-14T05:17:04.476Z,1.77
2018-12-14T05:20:08.226Z,1.75
2018-12-14T05:23:11.474Z,1.78
2018-12-14T05:26:14.705Z,1.81
2018-12-14T05:29:17.920Z,1.80
2018-12-14T05:32:21.152Z,1.78
2018-12-14T05:35:24.385Z,1.80
2018-12-14T05:38:27.608Z,1.75
2018-12-14T05:41:31.386Z,1.80
2018-12-14T05:44:34.901Z,1.91
2018-12-14T05:47:38.253Z,1.84
2018-12-14T05:50:41.481Z,1.84
2018-12-14T05:53:44.800Z,1.89
2018-12-14T05:56:48.158Z,1.86
2018-12-14T05:59:51.437Z,1.88
2018-12-14T06:02:54.803Z,1.89
2018-12-14T06:05:58.064Z,1.87
2018-12-14T06:09:01.272Z,1.86
2018-12-14T06:12:06.989Z,1.80
2018-12-14T06:15:10.477Z,1.81
2018-12-14T06:18:13.828Z,1.77
2018-12-14T06:21:17.166Z,1.81
2018-12-14T06:24:20.401Z,1.80
2018-12-14T06:27:23.632Z,1.81
2018-12-14T06:30:26.873Z,1.82
2018-12-14T06:33:30.097Z,1.84
2018-12-14T06:36:33.319Z,1.86
2018-12-14T06:39:36.716Z,1.82
2018-12-14T06:42:40.028Z,1.82
2018-12-14T06:45:43.270Z,1.83
2018-12-14T06:48:46.568Z,1.87
2018-12-14T06:51:49.876Z,1.93
2018-12-14T06:54:53.167Z,1.94
2018-12-14T06:57:56.450Z,1.90
2018-12-14T07:00:59.717Z,1.87
2018-12-14T07:04:02.959Z,1.82
2018-12-14T07:07:06.233Z,1.87
2018-12-14T07:10:12.301Z,1.87
2018-12-14T07:13:21.711Z,1.92
2018-12-14T07:16:20.896Z,1.92
2018-12-14T07:19:24.113Z,1.92
2018-12-14T07:22:27.330Z,1.88
2018-12-14T07:25:30.746Z,1.86
2018-12-14T07:28:34.276Z,1.94
2018-12-14T07:31:37.529Z,1.88
2018-12-14T07:34:40.745Z,1.93
2018-12-14T07:37:44.215Z,1.85
2018-12-14T07:40:47.445Z,1.89
2018-12-14T07:43:50.704Z,1.93
2018-12-14T07:46:54.058Z,1.93
2018-12-14T07:49:57.339Z,1.92
2018-12-14T07:53:00.596Z,1.89
2018-12-14T07:56:03.877Z,1.94
2018-12-14T07:59:07.565Z,1.88
2018-12-14T08:02:10.916Z,1.89
2018-12-14T08:05:14.157Z,1.87
2018-12-14T08:08:17.399Z,1.88
2018-12-14T08:11:20.616Z,1.93
2018-12-14T08:14:23.849Z,1.91
2018-12-14T08:17:27.096Z,1.97
2018-12-14T08:20:30.309Z,1.98
2018-12-14T08:23:33.584Z,1.97
2018-12-14T08:26:36.833Z,1.98
2018-12-14T08:29:40.066Z,1.94
2018-12-14T08:32:43.297Z,1.98
2018-12-14T08:35:46.548Z,2.01
2018-12-14T08:38:49.789Z,2.02
2018-12-14T08:41:53.006Z,2.07
2018-12-14T08:44:56.264Z,2.07
2018-12-14T08:48:00.028Z,2.05
2018-12-14T08:51:09.973Z,4.01
2018-12-14T08:54:13.228Z,2.59
2018-12-14T08:57:17.660Z,2.33
2018-12-14T09:00:20.908Z,2.22
2018-12-14T09:03:24.129Z,2.17
2018-12-14T09:06:27.358Z,2.19
2018-12-14T09:09:30.681Z,2.19
2018-12-14T09:12:33.944Z,2.21
2018-12-14T09:15:37.152Z,2.23
2018-12-14T09:18:40.392Z,2.20
2018-12-14T09:21:43.745Z,2.25
2018-12-14T09:24:47.001Z,2.81
2018-12-14T09:27:50.260Z,3.40
2018-12-14T09:30:53.481Z,2.49
2018-12-14T09:33:56.724Z,2.30
2018-12-14T09:36:59.953Z,2.31
2018-12-14T09:40:04.061Z,2.28
2018-12-14T09:43:07.289Z,2.29
2018-12-14T09:46:10.669Z,2.29
2018-12-14T09:49:13.900Z,2.31
2018-12-14T09:52:17.168Z,2.31
2018-12-14T09:55:20.682Z,2.32
2018-12-14T09:58:24.584Z,2.32
2018-12-14T10:01:27.820Z,2.35
2018-12-14T10:04:31.033Z,2.36
2018-12-14T10:07:34.281Z,2.35
2018-12-14T10:10:38.784Z,2.41
2018-12-14T10:13:42.201Z,2.44
2018-12-14T10:16:45.426Z,2.49
2018-12-14T10:19:48.664Z,2.44
2018-12-14T10:22:51.908Z,2.48
2018-12-14T10:25:55.295Z,2.47
2018-12-14T10:28:58.773Z,2.51
2018-12-14T10:32:02.225Z,2.48
2018-12-14T10:35:07.801Z,2.44
2018-12-14T10:38:11.151Z,2.48
2018-12-14T10:41:14.408Z,2.49
2018-12-14T10:44:17.669Z,2.54
2018-12-14T10:47:20.911Z,2.51
2018-12-14T10:50:24.184Z,2.58
2018-12-14T10:53:27.412Z,2.53
2018-12-14T10:56:30.688Z,2.51
2018-12-14T10:59:33.954Z,2.50
2018-12-14T11:02:39.237Z,2.56
2018-12-14T11:05:42.480Z,2.55
2018-12-14T11:08:45.721Z,2.51
2018-12-14T11:11:48.965Z,2.57
2018-12-14T11:14:52.173Z,2.60
2018-12-14T11:17:55.402Z,2.60
2018-12-14T11:20:58.632Z,2.61
2018-12-14T11:24:02.000Z,2.60
2018-12-14T11:27:06.355Z,2.63
2018-12-14T11:30:10.854Z,2.59
2018-12-14T11:33:14.109Z,2.62
2018-12-14T11:36:17.336Z,2.62
2018-12-14T11:39:20.565Z,2.68
2018-12-14T11:42:23.789Z,2.72
2018-12-14T11:45:27.032Z,2.71
2018-12-14T11:48:30.302Z,2.72
2018-12-14T11:51:33.536Z,2.72
2018-12-14T11:54:36.917Z,2.69
2018-12-14T11:57:40.149Z,2.66
2018-12-14T12:00:43.876Z,2.67
2018-12-14T12:03:47.734Z,2.73
2018-12-14T12:06:50.949Z,2.67
2018-12-14T12:09:54.194Z,2.70
2018-12-14T12:12:57.392Z,3.37
2018-12-14T12:16:00.634Z,3.14
2018-12-14T12:19:03.865Z,2.86
2018-12-14T12:22:07.133Z,2.80
2018-12-14T12:25:10.439Z,2.73
2018-12-14T12:28:13.657Z,2.70
2018-12-14T12:31:16.944Z,2.75
2018-12-14T12:34:20.433Z,2.76
2018-12-14T12:37:23.684Z,2.69
2018-12-14T12:40:26.889Z,2.69
2018-12-14T12:43:30.461Z,2.68
2018-12-14T12:46:33.725Z,2.63
2018-12-14T12:49:36.948Z,2.64
2018-12-14T12:52:40.175Z,3.73
2018-12-14T12:55:43.400Z,3.06
2018-12-14T12:58:46.768Z,2.81
2018-12-14T13:01:51.200Z,2.74
2018-12-14T13:04:54.752Z,2.68
2018-12-14T13:07:58.005Z,2.64
2018-12-14T13:11:01.339Z,2.61
2018-12-14T13:14:04.568Z,2.59
2018-12-14T13:17:07.788Z,2.62
2018-12-14T13:20:11.025Z,2.67
2018-12-14T13:23:14.276Z,2.66
2018-12-14T13:26:17.493Z,2.62
2018-12-14T13:29:20.784Z,2.58
2018-12-14T13:32:24.044Z,2.62
2018-12-14T13:35:27.732Z,2.62
2018-12-14T13:38:31.009Z,2.58
2018-12-14T13:41:34.282Z,2.58
2018-12-14T13:44:37.912Z,2.59
2018-12-14T13:47:41.119Z,2.60
2018-12-14T13:50:44.476Z,2.62
2018-12-14T13:53:47.692Z,2.61
2018-12-14T13:56:50.961Z,2.60
2018-12-14T13:59:54.181Z,2.66
2018-12-14T14:02:57.440Z,2.65
2018-12-14T14:06:00.676Z,2.71
2018-12-14T14:09:05.442Z,2.66
2018-12-14T14:12:10.833Z,2.60
2018-12-14T14:15:20.675Z,2.62
2018-12-14T14:18:19.384Z,2.58
2018-12-14T14:21:23.286Z,2.58
2018-12-14T14:24:26.553Z,2.60
2018-12-14T14:27:29.984Z,2.59
2018-12-14T14:30:33.223Z,2.61
2018-12-14T14:33:37.732Z,2.63
2018-12-14T14:36:40.988Z,2.60
2018-12-14T14:39:44.295Z,2.57
2018-12-14T14:42:47.600Z,2.57
2018-12-14T14:45:50.830Z,2.57
2018-12-14T14:48:54.174Z,2.60
2018-12-14T14:51:57.572Z,2.54
2018-12-14T14:55:02.162Z,2.52
2018-12-14T14:58:05.441Z,2.56
2018-12-14T15:01:08.661Z,2.51
2018-12-14T15:04:11.912Z,2.54
2018-12-14T15:07:15.199Z,2.48
2018-12-14T15:10:18.465Z,2.50
2018-12-14T15:16:36.928Z,2.47
2018-12-14T15:19:40.149Z,2.44
2018-12-14T15:22:43.348Z,2.49
2018-12-14T15:25:46.629Z,2.45
2018-12-14T15:28:49.853Z,2.48
2018-12-14T15:31:53.301Z,3.51
2018-12-14T15:34:56.585Z,3.73
2018-12-14T15:37:59.814Z,2.87
2018-12-14T15:41:03.061Z,2.63
2018-12-14T15:44:06.517Z,2.55
2018-12-14T15:47:09.885Z,2.50
2018-12-14T15:50:13.395Z,2.45
2018-12-14T15:53:16.656Z,2.40
2018-12-14T15:56:19.912Z,2.40
2018-12-14T15:59:23.164Z,2.40
2018-12-14T16:02:26.412Z,2.39
2018-12-14T16:05:29.774Z,2.42
2018-12-14T16:08:33.138Z,2.49
2018-12-14T16:11:36.407Z,2.39
2018-12-14T16:14:39.882Z,2.38
2018-12-14T16:17:43.232Z,2.48
2018-12-14T16:20:46.616Z,2.37
2018-12-14T16:23:50.086Z,2.37
2018-12-14T16:26:53.469Z,2.40
2018-12-14T16:29:56.961Z,2.39
2018-12-14T16:33:00.361Z,2.35
2018-12-14T16:36:03.686Z,2.40
2018-12-14T16:39:07.712Z,2.34
2018-12-14T16:42:13.054Z,2.37
2018-12-14T16:45:16.381Z,2.37
2018-12-14T16:48:19.877Z,2.38
2018-12-14T16:51:23.111Z,2.38
2018-12-14T16:54:26.388Z,2.35
2018-12-14T16:57:29.672Z,2.37
2018-12-14T17:00:33.208Z,2.40
2018-12-14T17:03:36.650Z,2.33
2018-12-14T17:06:39.967Z,2.35
2018-12-14T17:09:43.308Z,2.31
2018-12-14T17:12:46.557Z,2.42
2018-12-14T17:15:49.801Z,2.30
2018-12-14T17:18:53.049Z,2.30
2018-12-14T17:21:56.348Z,2.32
2018-12-14T17:24:59.827Z,2.39
2018-12-14T17:28:03.089Z,2.37
2018-12-14T17:31:06.344Z,2.36
2018-12-14T17:34:09.852Z,2.37
2018-12-14T17:37:14.373Z,2.36
2018-12-14T17:40:17.633Z,2.34
2018-12-14T17:43:22.900Z,2.29
2018-12-14T17:46:26.797Z,3.08
2018-12-14T17:49:30.800Z,3.14
2018-12-14T17:52:35.003Z,2.58
2018-12-14T17:55:38.248Z,2.46
2018-12-14T17:58:41.483Z,2.38
2018-12-14T18:01:44.762Z,2.40
2018-12-14T18:04:48.057Z,2.32
2018-12-14T18:07:51.324Z,2.42
2018-12-14T18:10:54.584Z,2.35
2018-12-14T18:13:57.836Z,2.27
2018-12-14T18:17:01.070Z,2.34
2018-12-14T18:20:05.252Z,2.37
2018-12-14T18:23:08.501Z,2.41
2018-12-14T18:26:11.729Z,2.32
2018-12-14T18:29:14.973Z,2.32
2018-12-14T18:32:18.226Z,2.33
2018-12-14T18:35:21.459Z,2.33
2018-12-14T18:38:24.706Z,2.39
2018-12-14T18:41:27.993Z,2.35
2018-12-14T18:44:31.265Z,2.34
2018-12-14T18:47:34.524Z,2.36
2018-12-14T18:50:37.861Z,2.43
2018-12-14T18:57:02.582Z,2.39
2018-12-14T19:00:08.361Z,2.26
2018-12-14T19:03:12.168Z,2.29
2018-12-14T19:06:15.420Z,2.30
2018-12-14T19:09:18.765Z,2.29
2018-12-14T19:12:22.150Z,2.28
2018-12-14T19:15:25.643Z,2.24
2018-12-14T19:18:28.889Z,2.33
2018-12-14T19:21:32.263Z,2.24
2018-12-14T19:24:35.567Z,2.20
2018-12-14T19:27:38.845Z,2.27
2018-12-14T19:30:42.265Z,2.24
2018-12-14T19:33:45.493Z,2.22
2018-12-14T19:36:48.794Z,2.23
2018-12-14T19:39:52.150Z,2.20
2018-12-14T19:42:55.388Z,2.23
2018-12-14T19:45:58.777Z,2.25
2018-12-14T19:49:02.078Z,2.24
2018-12-14T19:52:06.270Z,2.28
2018-12-14T19:55:09.554Z,2.20
2018-12-14T19:58:12.804Z,2.19
2018-12-14T20:01:16.093Z,2.24
2018-12-14T20:04:19.326Z,2.16
2018-12-14T20:07:25.535Z,2.21
2018-12-14T20:10:28.842Z,2.19
2018-12-14T20:13:32.109Z,2.17
2018-12-14T20:16:35.484Z,2.22
2018-12-14T20:19:38.765Z,2.12
2018-12-14T20:22:42.165Z,2.07
2018-12-14T20:25:45.404Z,2.14
2018-12-14T20:28:48.808Z,2.08
2018-12-14T20:31:52.042Z,2.18
2018-12-14T20:34:55.716Z,2.09
2018-12-14T20:37:59.324Z,2.09
2018-12-14T20:41:02.616Z,2.05
2018-12-14T20:44:05.886Z,2.10
2018-12-14T20:47:09.184Z,2.15
2018-12-14T20:50:12.697Z,2.08
2018-12-14T20:53:15.941Z,1.99
2018-12-14T20:56:19.228Z,2.10
2018-12-14T20:59:22.500Z,2.08
2018-12-14T21:02:25.740Z,2.12
2018-12-14T21:05:29.000Z,2.08
2018-12-14T21:08:32.225Z,2.12
2018-12-14T21:11:35.521Z,2.10
2018-12-14T21:14:39.036Z,2.01
2018-12-14T21:17:42.276Z,2.05
2018-12-14T21:20:45.535Z,2.08
2018-12-14T21:23:48.788Z,1.99
2018-12-14T21:26:52.032Z,2.03
2018-12-14T21:29:55.278Z,2.08
2018-12-14T21:32:58.521Z,2.07
2018-12-14T21:36:01.900Z,2.07
2018-12-14T21:39:06.513Z,2.12
2018-12-14T21:42:11.863Z,2.05
2018-12-14T21:45:15.254Z,2.04
2018-12-14T21:48:18.479Z,1.99
2018-12-14T21:51:21.713Z,2.05
2018-12-14T21:54:24.980Z,2.09
2018-12-14T21:57:28.378Z,2.04
2018-12-14T22:00:31.613Z,2.03
2018-12-14T22:03:34.860Z,2.02
2018-12-14T22:06:38.096Z,2.01
2018-12-14T22:09:41.393Z,1.98
2018-12-14T22:12:45.634Z,1.97
2018-12-14T22:15:48.884Z,3.41
2018-12-14T22:18:52.108Z,2.43
2018-12-14T22:21:55.362Z,2.20
2018-12-14T22:24:59.050Z,2.12
2018-12-14T22:28:02.296Z,2.10
2018-12-14T22:31:05.545Z,2.08
2018-12-14T22:34:08.791Z,2.00
2018-12-14T22:37:12.031Z,2.01
2018-12-14T22:40:15.357Z,1.99
2018-12-14T22:43:18.815Z,2.00
2018-12-14T22:46:22.069Z,1.98
2018-12-14T22:49:25.317Z,1.96
2018-12-14T22:52:28.661Z,1.97
2018-12-14T22:55:31.901Z,1.96
2018-12-14T22:58:35.150Z,1.87
2018-12-14T23:01:38.389Z,1.89
2018-12-14T23:04:41.730Z,1.94
2018-12-14T23:07:46.103Z,1.93
2018-12-14T23:10:49.372Z,1.90
2018-12-14T23:13:52.655Z,1.91
2018-12-14T23:16:55.909Z,2.00
2018-12-14T23:19:59.156Z,2.03
2018-12-14T23:23:02.425Z,2.04
2018-12-14T23:26:05.660Z,2.03
2018-12-14T23:29:10.020Z,2.08
2018-12-14T23:32:13.250Z,2.02
2018-12-14T23:35:16.487Z,1.99
2018-12-14T23:38:19.729Z,1.98
2018-12-14T23:41:22.990Z,2.08
2018-12-14T23:44:26.248Z,2.08
2018-12-14T23:47:29.468Z,2.06
2018-12-14T23:50:32.874Z,2.08
2018-12-14T23:53:36.085Z,2.02
2018-12-14T23:56:39.331Z,2.00
2018-12-14T23:59:42.694Z,2.06
